sensor_id;sensor_type;location;lat;lon;timestamp;pressure;altitude;pressure_sealevel;temperature;humidity
11676;BME280;5894;42.768;23.404;2022-10-18T00:02:21;97201.66;;;8.59;100.00
11676;BME280;5894;42.768;23.404;2022-10-18T00:04:48;97184.44;;;8.46;100.00
11676;BME280;5894;42.768;23.404;2022-10-18T00:07:14;97198.22;;;8.59;100.00
11676;BME280;5894;42.768;23.404;2022-10-18T00:09:42;97187.97;;;8.57;100.00
11676;BME280;5894;42.768;23.404;2022-10-18T00:12:09;97189.47;;;8.53;100.00
11676;BME280;5894;42.768;23.404;2022-10-18T00:14:36;97172.63;;;8.49;100.00
11676;BME280;5894;42.768;23.404;2022-10-18T00:17:03;97153.94;;;8.24;100.00
11676;BME280;5894;42.768;23.404;2022-10-18T00:19:30;97190.19;;;8.43;100.00
11676;BME280;5894;42.768;23.404;2022-10-18T00:21:56;97187.53;;;8.43;100.00
11676;BME280;5894;42.768;23.404;2022-10-18T00:24:23;97181.25;;;8.44;100.00
11676;BME280;5894;42.768;23.404;2022-10-18T00:26:51;97174.38;;;8.38;100.00
11676;BME280;5894;42.768;23.404;2022-10-18T00:29:18;97179.88;;;8.37;100.00
11676;BME280;5894;42.768;23.404;2022-10-18T00:31:45;97177.25;;;8.37;100.00
11676;BME280;5894;42.768;23.404;2022-10-18T00:34:13;97164.56;;;8.34;100.00
11676;BME280;5894;42.768;23.404;2022-10-18T00:36:41;97171.66;;;8.33;100.00
11676;BME280;5894;42.768;23.404;2022-10-18T00:39:13;97167.22;;;8.34;100.00
11676;BME280;5894;42.768;23.404;2022-10-18T00:41:40;97163.97;;;8.27;100.00
11676;BME280;5894;42.768;23.404;2022-10-18T00:47:10;97163.16;;;8.26;100.00
11676;BME280;5894;42.768;23.404;2022-10-18T00:49:40;97071.09;;;7.67;100.00
11676;BME280;5894;42.768;23.404;2022-10-18T00:52:10;97125.50;;;7.94;100.00
11676;BME280;5894;42.768;23.404;2022-10-18T00:54:40;97161.16;;;8.11;100.00
11676;BME280;5894;42.768;23.404;2022-10-18T00:57:09;97122.28;;;7.87;100.00
11676;BME280;5894;42.768;23.404;2022-10-18T00:59:36;97153.00;;;8.08;100.00
11676;BME280;5894;42.768;23.404;2022-10-18T01:02:03;97153.59;;;7.93;100.00
11676;BME280;5894;42.768;23.404;2022-10-18T01:04:33;97146.47;;;7.89;100.00
11676;BME280;5894;42.768;23.404;2022-10-18T01:07:05;97149.94;;;7.94;100.00
11676;BME280;5894;42.768;23.404;2022-10-18T01:09:40;97149.09;;;7.89;100.00
11676;BME280;5894;42.768;23.404;2022-10-18T01:12:15;97145.34;;;7.85;100.00
11676;BME280;5894;42.768;23.404;2022-10-18T01:14:51;97144.81;;;7.83;100.00
11676;BME280;5894;42.768;23.404;2022-10-18T01:17:24;97099.31;;;7.55;100.00
11676;BME280;5894;42.768;23.404;2022-10-18T01:22:52;97126.38;;;7.78;100.00
11676;BME280;5894;42.768;23.404;2022-10-18T01:25:31;97131.63;;;7.78;100.00
11676;BME280;5894;42.768;23.404;2022-10-18T01:28:08;97130.59;;;7.79;100.00
11676;BME280;5894;42.768;23.404;2022-10-18T01:30:45;97132.94;;;7.80;100.00
11676;BME280;5894;42.768;23.404;2022-10-18T01:33:21;97129.25;;;7.76;100.00
11676;BME280;5894;42.768;23.404;2022-10-18T01:35:55;97118.63;;;7.66;100.00
11676;BME280;5894;42.768;23.404;2022-10-18T01:38:25;97131.88;;;7.76;100.00
11676;BME280;5894;42.768;23.404;2022-10-18T01:40:55;97127.34;;;7.71;100.00
11676;BME280;5894;42.768;23.404;2022-10-18T01:43:22;97125.97;;;7.69;100.00
11676;BME280;5894;42.768;23.404;2022-10-18T01:45:52;97134.13;;;7.67;100.00
11676;BME280;5894;42.768;23.404;2022-10-18T01:48:20;97126.19;;;7.62;100.00
11676;BME280;5894;42.768;23.404;2022-10-18T01:50:47;97129.78;;;7.56;100.00
11676;BME280;5894;42.768;23.404;2022-10-18T01:53:26;97108.75;;;7.34;100.00
11676;BME280;5894;42.768;23.404;2022-10-18T01:58:47;97134.25;;;7.56;100.00
11676;BME280;5894;42.768;23.404;2022-10-18T02:01:26;97130.25;;;7.53;100.00
11676;BME280;5894;42.768;23.404;2022-10-18T02:03:58;97103.16;;;7.26;100.00
11676;BME280;5894;42.768;23.404;2022-10-18T02:06:34;97131.97;;;7.43;100.00
11676;BME280;5894;42.768;23.404;2022-10-18T02:09:07;97089.94;;;7.21;100.00
11676;BME280;5894;42.768;23.404;2022-10-18T02:11:36;97070.66;;;7.10;100.00
11676;BME280;5894;42.768;23.404;2022-10-18T02:14:06;97124.56;;;7.40;100.00
11676;BME280;5894;42.768;23.404;2022-10-18T02:16:39;97119.97;;;7.30;100.00
11676;BME280;5894;42.768;23.404;2022-10-18T02:19:11;97127.38;;;7.33;100.00
11676;BME280;5894;42.768;23.404;2022-10-18T02:21:41;97122.53;;;7.25;100.00
11676;BME280;5894;42.768;23.404;2022-10-18T02:24:10;97126.44;;;7.22;100.00
11676;BME280;5894;42.768;23.404;2022-10-18T02:26:38;97120.63;;;7.20;100.00
11676;BME280;5894;42.768;23.404;2022-10-18T02:29:06;97112.72;;;7.15;100.00
11676;BME280;5894;42.768;23.404;2022-10-18T02:31:38;97102.91;;;7.11;100.00
11676;BME280;5894;42.768;23.404;2022-10-18T02:34:11;97115.66;;;7.02;100.00
11676;BME280;5894;42.768;23.404;2022-10-18T02:36:43;97106.84;;;6.91;100.00
11676;BME280;5894;42.768;23.404;2022-10-18T02:39:13;97064.66;;;6.59;100.00
11676;BME280;5894;42.768;23.404;2022-10-18T02:41:40;97115.50;;;6.92;100.00
11676;BME280;5894;42.768;23.404;2022-10-18T02:44:07;97094.28;;;6.77;100.00
11676;BME280;5894;42.768;23.404;2022-10-18T02:46:34;97097.78;;;6.82;100.00
11676;BME280;5894;42.768;23.404;2022-10-18T02:49:03;97098.88;;;6.86;100.00
11676;BME280;5894;42.768;23.404;2022-10-18T02:51:29;97084.75;;;6.71;100.00
11676;BME280;5894;42.768;23.404;2022-10-18T02:53:56;97105.72;;;6.87;100.00
11676;BME280;5894;42.768;23.404;2022-10-18T02:56:23;97067.13;;;6.66;100.00
11676;BME280;5894;42.768;23.404;2022-10-18T02:58:50;97112.16;;;6.96;100.00
11676;BME280;5894;42.768;23.404;2022-10-18T03:01:17;97118.19;;;6.97;100.00
11676;BME280;5894;42.768;23.404;2022-10-18T03:03:44;97115.97;;;6.89;100.00
11676;BME280;5894;42.768;23.404;2022-10-18T03:06:12;97117.81;;;6.88;100.00
11676;BME280;5894;42.768;23.404;2022-10-18T03:08:39;97102.94;;;6.77;100.00
11676;BME280;5894;42.768;23.404;2022-10-18T03:11:06;97119.97;;;6.91;100.00
11676;BME280;5894;42.768;23.404;2022-10-18T03:13:32;97086.81;;;6.69;100.00
11676;BME280;5894;42.768;23.404;2022-10-18T03:15:59;97108.84;;;6.84;100.00
11676;BME280;5894;42.768;23.404;2022-10-18T03:18:26;97116.78;;;6.89;100.00
11676;BME280;5894;42.768;23.404;2022-10-18T03:20:53;97117.56;;;6.90;100.00
11676;BME280;5894;42.768;23.404;2022-10-18T03:23:21;97086.91;;;6.57;100.00
11676;BME280;5894;42.768;23.404;2022-10-18T03:25:48;97086.28;;;6.50;100.00
11676;BME280;5894;42.768;23.404;2022-10-18T03:28:15;97121.47;;;6.71;100.00
11676;BME280;5894;42.768;23.404;2022-10-18T03:30:42;97127.50;;;6.71;100.00
11676;BME280;5894;42.768;23.404;2022-10-18T03:33:08;97117.66;;;6.61;100.00
11676;BME280;5894;42.768;23.404;2022-10-18T03:35:35;97124.00;;;6.66;100.00
11676;BME280;5894;42.768;23.404;2022-10-18T03:38:02;97129.97;;;6.61;100.00
11676;BME280;5894;42.768;23.404;2022-10-18T03:40:30;97127.34;;;6.61;100.00
11676;BME280;5894;42.768;23.404;2022-10-18T03:42:57;97119.78;;;6.48;100.00
11676;BME280;5894;42.768;23.404;2022-10-18T03:45:24;97131.16;;;6.53;100.00
11676;BME280;5894;42.768;23.404;2022-10-18T03:47:51;97123.84;;;6.55;100.00
11676;BME280;5894;42.768;23.404;2022-10-18T03:50:18;97123.59;;;6.57;100.00
11676;BME280;5894;42.768;23.404;2022-10-18T03:52:44;97130.09;;;6.54;100.00
11676;BME280;5894;42.768;23.404;2022-10-18T03:55:11;97129.25;;;6.49;100.00
11676;BME280;5894;42.768;23.404;2022-10-18T03:57:39;97141.03;;;6.35;100.00
11676;BME280;5894;42.768;23.404;2022-10-18T04:00:07;97135.78;;;6.18;100.00
11676;BME280;5894;42.768;23.404;2022-10-18T04:02:40;97143.16;;;6.21;100.00
11676;BME280;5894;42.768;23.404;2022-10-18T04:05:08;97146.81;;;6.20;100.00
11676;BME280;5894;42.768;23.404;2022-10-18T04:07:35;97145.44;;;6.17;100.00
11676;BME280;5894;42.768;23.404;2022-10-18T04:10:02;97060.97;;;5.82;100.00
11676;BME280;5894;42.768;23.404;2022-10-18T04:12:29;97131.84;;;6.32;100.00
11676;BME280;5894;42.768;23.404;2022-10-18T04:14:57;97126.50;;;6.27;100.00
11676;BME280;5894;42.768;23.404;2022-10-18T04:17:24;97130.75;;;6.16;100.00
11676;BME280;5894;42.768;23.404;2022-10-18T04:19:51;97123.63;;;6.12;100.00
11676;BME280;5894;42.768;23.404;2022-10-18T04:22:18;97136.00;;;6.16;100.00
11676;BME280;5894;42.768;23.404;2022-10-18T04:24:44;97136.63;;;6.07;100.00
11676;BME280;5894;42.768;23.404;2022-10-18T04:27:11;97130.13;;;6.09;100.00
11676;BME280;5894;42.768;23.404;2022-10-18T04:29:38;97125.09;;;6.08;100.00
11676;BME280;5894;42.768;23.404;2022-10-18T04:32:06;97135.34;;;6.09;100.00
11676;BME280;5894;42.768;23.404;2022-10-18T04:34:33;97136.22;;;6.15;100.00
11676;BME280;5894;42.768;23.404;2022-10-18T04:37:00;97128.16;;;6.16;100.00
11676;BME280;5894;42.768;23.404;2022-10-18T04:39:27;97133.38;;;6.16;100.00
11676;BME280;5894;42.768;23.404;2022-10-18T04:41:54;97122.44;;;6.19;100.00
11676;BME280;5894;42.768;23.404;2022-10-18T04:44:20;97129.75;;;6.17;100.00
11676;BME280;5894;42.768;23.404;2022-10-18T04:46:47;97123.06;;;6.10;100.00
11676;BME280;5894;42.768;23.404;2022-10-18T04:49:15;97124.78;;;6.04;100.00
11676;BME280;5894;42.768;23.404;2022-10-18T04:51:42;97135.03;;;6.06;100.00
11676;BME280;5894;42.768;23.404;2022-10-18T04:54:09;97117.94;;;6.03;100.00
11676;BME280;5894;42.768;23.404;2022-10-18T04:56:36;97123.44;;;6.02;100.00
11676;BME280;5894;42.768;23.404;2022-10-18T04:59:03;97128.09;;;6.00;100.00
11676;BME280;5894;42.768;23.404;2022-10-18T05:01:30;97119.22;;;6.01;100.00
11676;BME280;5894;42.768;23.404;2022-10-18T05:03:57;97115.94;;;5.94;100.00
11676;BME280;5894;42.768;23.404;2022-10-18T05:06:25;97129.44;;;6.02;100.00
11676;BME280;5894;42.768;23.404;2022-10-18T05:08:52;97121.84;;;6.01;100.00
11676;BME280;5894;42.768;23.404;2022-10-18T05:11:18;97119.47;;;5.99;100.00
11676;BME280;5894;42.768;23.404;2022-10-18T05:13:45;97088.31;;;5.74;100.00
11676;BME280;5894;42.768;23.404;2022-10-18T05:16:12;97123.34;;;5.97;100.00
11676;BME280;5894;42.768;23.404;2022-10-18T05:18:40;97104.19;;;5.96;100.00
11676;BME280;5894;42.768;23.404;2022-10-18T05:21:08;97124.22;;;6.02;100.00
11676;BME280;5894;42.768;23.404;2022-10-18T05:23:38;97115.88;;;6.05;100.00
11676;BME280;5894;42.768;23.404;2022-10-18T05:26:06;97118.38;;;6.12;100.00
11676;BME280;5894;42.768;23.404;2022-10-18T05:28:33;97122.03;;;6.11;100.00
11676;BME280;5894;42.768;23.404;2022-10-18T05:31:02;97120.75;;;6.13;100.00
11676;BME280;5894;42.768;23.404;2022-10-18T05:33:29;97094.63;;;6.02;100.00
11676;BME280;5894;42.768;23.404;2022-10-18T05:35:56;97101.06;;;6.11;100.00
11676;BME280;5894;42.768;23.404;2022-10-18T05:38:23;97119.09;;;6.24;100.00
11676;BME280;5894;42.768;23.404;2022-10-18T05:40:51;97113.63;;;6.25;100.00
11676;BME280;5894;42.768;23.404;2022-10-18T05:43:18;97112.53;;;6.21;100.00
11676;BME280;5894;42.768;23.404;2022-10-18T05:45:48;97120.25;;;6.28;100.00
11676;BME280;5894;42.768;23.404;2022-10-18T05:48:15;97121.97;;;6.22;100.00
11676;BME280;5894;42.768;23.404;2022-10-18T05:50:42;97117.28;;;6.24;100.00
11676;BME280;5894;42.768;23.404;2022-10-18T05:53:09;97119.44;;;6.28;100.00
11676;BME280;5894;42.768;23.404;2022-10-18T05:55:36;97116.03;;;6.27;100.00
11676;BME280;5894;42.768;23.404;2022-10-18T05:58:04;97095.69;;;6.17;100.00
11676;BME280;5894;42.768;23.404;2022-10-18T06:00:31;97116.66;;;6.34;100.00
11676;BME280;5894;42.768;23.404;2022-10-18T06:02:58;97121.59;;;6.31;100.00
11676;BME280;5894;42.768;23.404;2022-10-18T06:05:25;97122.63;;;6.30;100.00
11676;BME280;5894;42.768;23.404;2022-10-18T06:07:51;97128.50;;;6.37;100.00
11676;BME280;5894;42.768;23.404;2022-10-18T06:10:18;97123.97;;;6.32;100.00
11676;BME280;5894;42.768;23.404;2022-10-18T06:12:45;97126.44;;;6.39;100.00
11676;BME280;5894;42.768;23.404;2022-10-18T06:15:13;97120.25;;;6.45;100.00
11676;BME280;5894;42.768;23.404;2022-10-18T06:17:40;97127.31;;;6.44;100.00
11676;BME280;5894;42.768;23.404;2022-10-18T06:20:08;97127.66;;;6.48;100.00
11676;BME280;5894;42.768;23.404;2022-10-18T06:22:35;97125.13;;;6.53;100.00
11676;BME280;5894;42.768;23.404;2022-10-18T06:25:01;97125.75;;;6.60;100.00
11676;BME280;5894;42.768;23.404;2022-10-18T06:27:28;97128.78;;;6.69;100.00
11676;BME280;5894;42.768;23.404;2022-10-18T06:29:56;97129.16;;;6.77;100.00
11676;BME280;5894;42.768;23.404;2022-10-18T06:32:24;97126.16;;;6.85;100.00
11676;BME280;5894;42.768;23.404;2022-10-18T06:34:51;97127.34;;;6.94;100.00
11676;BME280;5894;42.768;23.404;2022-10-18T06:37:17;97132.19;;;7.03;100.00
11676;BME280;5894;42.768;23.404;2022-10-18T06:39:44;97101.38;;;6.93;100.00
11676;BME280;5894;42.768;23.404;2022-10-18T06:42:11;97121.91;;;7.18;100.00
11676;BME280;5894;42.768;23.404;2022-10-18T06:44:38;97114.28;;;7.16;100.00
11676;BME280;5894;42.768;23.404;2022-10-18T06:47:06;97125.69;;;7.27;100.00
11676;BME280;5894;42.768;23.404;2022-10-18T06:49:34;97126.09;;;7.35;100.00
11676;BME280;5894;42.768;23.404;2022-10-18T06:52:01;97115.84;;;7.34;100.00
11676;BME280;5894;42.768;23.404;2022-10-18T06:54:28;97110.97;;;7.43;100.00
11676;BME280;5894;42.768;23.404;2022-10-18T06:56:55;97115.53;;;7.52;100.00
11676;BME280;5894;42.768;23.404;2022-10-18T06:59:22;97117.44;;;7.57;100.00
11676;BME280;5894;42.768;23.404;2022-10-18T07:01:49;97110.75;;;7.66;100.00
11676;BME280;5894;42.768;23.404;2022-10-18T07:04:16;97069.22;;;7.41;100.00
11676;BME280;5894;42.768;23.404;2022-10-18T07:06:44;97110.00;;;7.70;100.00
11676;BME280;5894;42.768;23.404;2022-10-18T07:09:11;97116.91;;;7.77;100.00
11676;BME280;5894;42.768;23.404;2022-10-18T07:11:38;97084.41;;;7.61;100.00
11676;BME280;5894;42.768;23.404;2022-10-18T07:14:04;97110.63;;;7.78;100.00
11676;BME280;5894;42.768;23.404;2022-10-18T07:16:32;97114.28;;;7.77;100.00
11676;BME280;5894;42.768;23.404;2022-10-18T07:18:59;97111.44;;;7.83;100.00
11676;BME280;5894;42.768;23.404;2022-10-18T07:21:26;97111.69;;;7.82;100.00
11676;BME280;5894;42.768;23.404;2022-10-18T07:23:55;97103.38;;;7.90;100.00
11676;BME280;5894;42.768;23.404;2022-10-18T07:26:23;97101.59;;;7.95;100.00
11676;BME280;5894;42.768;23.404;2022-10-18T07:28:53;97105.88;;;8.01;100.00
11676;BME280;5894;42.768;23.404;2022-10-18T07:31:20;97084.38;;;8.04;100.00
11676;BME280;5894;42.768;23.404;2022-10-18T07:33:48;97084.72;;;8.13;100.00
11676;BME280;5894;42.768;23.404;2022-10-18T07:36:15;97085.56;;;8.19;100.00
11676;BME280;5894;42.768;23.404;2022-10-18T07:38:42;97087.66;;;8.22;100.00
11676;BME280;5894;42.768;23.404;2022-10-18T07:41:12;97080.41;;;8.29;100.00
11676;BME280;5894;42.768;23.404;2022-10-18T07:43:41;97074.16;;;8.35;100.00
11676;BME280;5894;42.768;23.404;2022-10-18T07:46:10;97079.97;;;8.37;100.00
11676;BME280;5894;42.768;23.404;2022-10-18T07:48:36;97076.06;;;8.39;100.00
11676;BME280;5894;42.768;23.404;2022-10-18T07:51:04;97077.44;;;8.47;100.00
11676;BME280;5894;42.768;23.404;2022-10-18T07:53:31;97068.53;;;8.53;100.00
11676;BME280;5894;42.768;23.404;2022-10-18T07:55:59;97068.81;;;8.57;100.00
11676;BME280;5894;42.768;23.404;2022-10-18T07:58:27;97020.75;;;8.29;100.00
11676;BME280;5894;42.768;23.404;2022-10-18T08:00:55;97070.50;;;8.73;100.00
11676;BME280;5894;42.768;23.404;2022-10-18T08:03:22;97070.59;;;8.83;100.00
11676;BME280;5894;42.768;23.404;2022-10-18T08:05:53;97067.25;;;8.93;100.00
11676;BME280;5894;42.768;23.404;2022-10-18T08:08:20;97060.16;;;8.98;100.00
11676;BME280;5894;42.768;23.404;2022-10-18T08:10:47;97064.69;;;9.08;100.00
11676;BME280;5894;42.768;23.404;2022-10-18T08:13:15;97060.28;;;9.18;100.00
11676;BME280;5894;42.768;23.404;2022-10-18T08:15:43;97041.34;;;9.22;100.00
11676;BME280;5894;42.768;23.404;2022-10-18T08:18:11;97044.28;;;9.35;100.00
11676;BME280;5894;42.768;23.404;2022-10-18T08:20:41;97028.50;;;9.35;100.00
11676;BME280;5894;42.768;23.404;2022-10-18T08:23:09;97033.31;;;9.53;100.00
11676;BME280;5894;42.768;23.404;2022-10-18T08:25:36;97032.81;;;9.62;100.00
11676;BME280;5894;42.768;23.404;2022-10-18T08:28:03;97032.84;;;9.72;100.00
11676;BME280;5894;42.768;23.404;2022-10-18T08:30:30;96997.28;;;9.64;100.00
11676;BME280;5894;42.768;23.404;2022-10-18T08:32:58;97013.38;;;9.83;100.00
11676;BME280;5894;42.768;23.404;2022-10-18T08:35:25;97008.13;;;9.93;100.00
11676;BME280;5894;42.768;23.404;2022-10-18T08:37:51;96999.97;;;9.94;100.00
11676;BME280;5894;42.768;23.404;2022-10-18T08:40:18;97007.91;;;10.15;100.00
11676;BME280;5894;42.768;23.404;2022-10-18T08:42:56;97003.19;;;10.27;100.00
11676;BME280;5894;42.768;23.404;2022-10-18T08:45:25;96988.94;;;10.33;100.00
11676;BME280;5894;42.768;23.404;2022-10-18T08:47:54;96991.84;;;10.47;100.00
11676;BME280;5894;42.768;23.404;2022-10-18T08:50:26;96985.22;;;10.64;100.00
11676;BME280;5894;42.768;23.404;2022-10-18T08:53:04;96987.56;;;10.76;100.00
11676;BME280;5894;42.768;23.404;2022-10-18T08:55:41;96950.91;;;10.64;100.00
11676;BME280;5894;42.768;23.404;2022-10-18T08:58:14;96988.84;;;10.99;100.00
11676;BME280;5894;42.768;23.404;2022-10-18T09:00:49;96975.56;;;11.14;100.00
11676;BME280;5894;42.768;23.404;2022-10-18T09:03:30;96959.72;;;11.14;100.00
11676;BME280;5894;42.768;23.404;2022-10-18T09:06:10;96967.81;;;11.33;100.00
11676;BME280;5894;42.768;23.404;2022-10-18T09:08:54;96938.81;;;11.28;100.00
11676;BME280;5894;42.768;23.404;2022-10-18T09:11:33;96970.31;;;11.63;100.00
11676;BME280;5894;42.768;23.404;2022-10-18T09:14:41;96971.84;;;11.74;100.00
11676;BME280;5894;42.768;23.404;2022-10-18T09:17:16;96959.16;;;11.82;100.00
11676;BME280;5894;42.768;23.404;2022-10-18T09:20:01;96969.09;;;11.95;100.00
11676;BME280;5894;42.768;23.404;2022-10-18T09:22:47;96965.31;;;12.06;100.00
11676;BME280;5894;42.768;23.404;2022-10-18T09:25:17;96958.31;;;12.20;98.75
11676;BME280;5894;42.768;23.404;2022-10-18T09:27:51;96962.63;;;12.45;95.65
11676;BME280;5894;42.768;23.404;2022-10-18T09:30:26;96958.38;;;12.73;95.32
11676;BME280;5894;42.768;23.404;2022-10-18T09:33:02;96948.63;;;12.92;94.42
11676;BME280;5894;42.768;23.404;2022-10-18T09:35:38;96951.03;;;13.12;91.56
11676;BME280;5894;42.768;23.404;2022-10-18T09:38:12;96943.75;;;13.28;93.02
11676;BME280;5894;42.768;23.404;2022-10-18T09:40:49;96940.66;;;13.40;88.68
11676;BME280;5894;42.768;23.404;2022-10-18T09:43:20;96941.66;;;13.63;80.84
11676;BME280;5894;42.768;23.404;2022-10-18T09:45:49;96910.31;;;13.70;78.72
11676;BME280;5894;42.768;23.404;2022-10-18T09:48:21;96939.69;;;14.06;77.80
11676;BME280;5894;42.768;23.404;2022-10-18T09:50:53;96936.19;;;14.10;77.20
11676;BME280;5894;42.768;23.404;2022-10-18T09:53:29;96920.00;;;14.12;79.06
11676;BME280;5894;42.768;23.404;2022-10-18T09:56:02;96929.34;;;14.23;76.45
11676;BME280;5894;42.768;23.404;2022-10-18T09:58:41;96926.09;;;14.26;77.18
11676;BME280;5894;42.768;23.404;2022-10-18T10:01:11;96924.16;;;14.31;75.28
11676;BME280;5894;42.768;23.404;2022-10-18T10:03:40;96921.38;;;14.42;71.16
11676;BME280;5894;42.768;23.404;2022-10-18T10:06:22;96910.56;;;14.52;72.97
11676;BME280;5894;42.768;23.404;2022-10-18T10:08:57;96899.06;;;14.56;74.79
11676;BME280;5894;42.768;23.404;2022-10-18T10:11:33;96896.22;;;14.66;72.42
11676;BME280;5894;42.768;23.404;2022-10-18T10:14:09;96877.34;;;14.68;71.58
11676;BME280;5894;42.768;23.404;2022-10-18T10:16:52;96891.13;;;14.84;70.92
11676;BME280;5894;42.768;23.404;2022-10-18T10:19:23;96873.78;;;14.86;71.44
11676;BME280;5894;42.768;23.404;2022-10-18T10:21:55;96862.88;;;14.88;70.42
11676;BME280;5894;42.768;23.404;2022-10-18T10:24:31;96875.16;;;14.97;69.91
11676;BME280;5894;42.768;23.404;2022-10-18T10:27:03;96866.00;;;15.03;68.98
11676;BME280;5894;42.768;23.404;2022-10-18T10:29:55;96860.00;;;15.12;65.59
11676;BME280;5894;42.768;23.404;2022-10-18T10:32:26;96852.59;;;15.22;64.48
11676;BME280;5894;42.768;23.404;2022-10-18T10:34:53;96839.16;;;15.27;61.57
11676;BME280;5894;42.768;23.404;2022-10-18T10:37:32;96843.19;;;15.38;59.89
11676;BME280;5894;42.768;23.404;2022-10-18T10:40:18;96831.94;;;15.41;59.29
11676;BME280;5894;42.768;23.404;2022-10-18T10:43:00;96820.28;;;15.65;52.55
11676;BME280;5894;42.768;23.404;2022-10-18T10:45:30;96768.16;;;15.41;53.15
11676;BME280;5894;42.768;23.404;2022-10-18T10:48:06;96819.00;;;15.85;49.83
11676;BME280;5894;42.768;23.404;2022-10-18T10:50:52;96807.31;;;15.94;50.56
11676;BME280;5894;42.768;23.404;2022-10-18T10:53:26;96807.94;;;16.00;49.35
11676;BME280;5894;42.768;23.404;2022-10-18T10:55:56;96804.19;;;16.01;50.63
11676;BME280;5894;42.768;23.404;2022-10-18T10:58:25;96799.38;;;16.03;52.56
11676;BME280;5894;42.768;23.404;2022-10-18T11:00:55;96797.69;;;16.07;50.07
11676;BME280;5894;42.768;23.404;2022-10-18T11:03:22;96748.91;;;15.89;50.44
11676;BME280;5894;42.768;23.404;2022-10-18T11:05:51;96796.78;;;16.20;50.57
11676;BME280;5894;42.768;23.404;2022-10-18T11:08:22;96784.31;;;16.29;48.18
11676;BME280;5894;42.768;23.404;2022-10-18T11:10:57;96784.47;;;16.33;45.49
11676;BME280;5894;42.768;23.404;2022-10-18T11:13:43;96782.75;;;16.37;42.84
11676;BME280;5894;42.768;23.404;2022-10-18T11:16:15;96770.06;;;16.42;45.17
11676;BME280;5894;42.768;23.404;2022-10-18T11:18:48;96614.78;;;15.51;44.25
11676;BME280;5894;42.768;23.404;2022-10-18T11:21:19;96759.34;;;16.65;44.92
11676;BME280;5894;42.768;23.404;2022-10-18T11:23:48;96737.41;;;16.59;43.43
11676;BME280;5894;42.768;23.404;2022-10-18T11:26:39;96747.47;;;16.71;44.32
11676;BME280;5894;42.768;23.404;2022-10-18T11:29:25;96743.69;;;16.72;44.59
11676;BME280;5894;42.768;23.404;2022-10-18T11:32:05;96739.31;;;16.67;44.46
11676;BME280;5894;42.768;23.404;2022-10-18T11:34:47;96685.97;;;16.41;43.69
11676;BME280;5894;42.768;23.404;2022-10-18T11:37:29;96732.28;;;16.80;43.05
11676;BME280;5894;42.768;23.404;2022-10-18T11:40:08;96716.13;;;16.85;42.57
11676;BME280;5894;42.768;23.404;2022-10-18T11:42:46;96681.69;;;16.71;42.08
11676;BME280;5894;42.768;23.404;2022-10-18T11:45:27;96707.53;;;16.97;40.99
11676;BME280;5894;42.768;23.404;2022-10-18T11:48:01;96708.00;;;17.07;39.42
11676;BME280;5894;42.768;23.404;2022-10-18T11:50:35;96703.88;;;17.27;37.77
11676;BME280;5894;42.768;23.404;2022-10-18T11:53:12;96694.66;;;17.33;37.41
11676;BME280;5894;42.768;23.404;2022-10-18T11:55:52;96691.97;;;17.42;37.56
11676;BME280;5894;42.768;23.404;2022-10-18T11:58:44;96688.63;;;17.53;37.91
11676;BME280;5894;42.768;23.404;2022-10-18T12:01:23;96685.03;;;17.49;38.28
11676;BME280;5894;42.768;23.404;2022-10-18T12:03:59;96677.63;;;17.55;37.65
11676;BME280;5894;42.768;23.404;2022-10-18T12:06:32;96627.19;;;17.24;39.25
11676;BME280;5894;42.768;23.404;2022-10-18T12:09:02;96661.19;;;17.53;36.29
11676;BME280;5894;42.768;23.404;2022-10-18T12:11:33;96664.31;;;17.64;34.89
11676;BME280;5894;42.768;23.404;2022-10-18T12:14:06;96641.41;;;17.63;34.52
11676;BME280;5894;42.768;23.404;2022-10-18T12:16:39;96645.75;;;17.67;36.13
11676;BME280;5894;42.768;23.404;2022-10-18T12:19:12;96639.47;;;17.72;34.94
11676;BME280;5894;42.768;23.404;2022-10-18T12:21:44;96633.63;;;17.78;34.69
11676;BME280;5894;42.768;23.404;2022-10-18T12:24:14;96620.53;;;17.94;27.99
11676;BME280;5894;42.768;23.404;2022-10-18T12:26:43;96624.91;;;17.98;30.35
11676;BME280;5894;42.768;23.404;2022-10-18T12:29:20;96627.72;;;18.02;31.47
11676;BME280;5894;42.768;23.404;2022-10-18T12:31:53;96622.13;;;17.95;31.39
11676;BME280;5894;42.768;23.404;2022-10-18T12:34:26;96618.66;;;17.94;30.78
11676;BME280;5894;42.768;23.404;2022-10-18T12:37:02;96614.53;;;17.97;30.19
11676;BME280;5894;42.768;23.404;2022-10-18T12:39:38;96607.31;;;17.97;31.01
11676;BME280;5894;42.768;23.404;2022-10-18T12:42:16;96606.88;;;17.95;30.46
11676;BME280;5894;42.768;23.404;2022-10-18T12:44:45;96603.22;;;18.00;30.20
11676;BME280;5894;42.768;23.404;2022-10-18T12:47:20;96606.94;;;18.08;28.17
11676;BME280;5894;42.768;23.404;2022-10-18T12:49:54;96595.47;;;18.07;29.04
11676;BME280;5894;42.768;23.404;2022-10-18T12:52:24;96595.31;;;18.12;27.24
11676;BME280;5894;42.768;23.404;2022-10-18T12:55:26;96594.28;;;18.25;27.32
11676;BME280;5894;42.768;23.404;2022-10-18T13:01:04;96594.91;;;18.22;27.30
11676;BME280;5894;42.768;23.404;2022-10-18T13:03:51;96589.59;;;18.22;27.99
11676;BME280;5894;42.768;23.404;2022-10-18T13:06:19;96586.28;;;18.25;28.37
11676;BME280;5894;42.768;23.404;2022-10-18T13:08:46;96542.03;;;17.95;28.07
11676;BME280;5894;42.768;23.404;2022-10-18T13:11:36;96583.47;;;18.22;28.48
11676;BME280;5894;42.768;23.404;2022-10-18T13:14:26;96572.25;;;18.28;29.64
11676;BME280;5894;42.768;23.404;2022-10-18T13:17:05;96564.91;;;18.25;30.37
11676;BME280;5894;42.768;23.404;2022-10-18T13:19:43;96518.03;;;17.95;30.46
11676;BME280;5894;42.768;23.404;2022-10-18T13:22:24;96565.16;;;18.32;30.82
11676;BME280;5894;42.768;23.404;2022-10-18T13:25:00;96562.75;;;18.40;29.14
11676;BME280;5894;42.768;23.404;2022-10-18T13:27:39;96562.22;;;18.46;29.40
11676;BME280;5894;42.768;23.404;2022-10-18T13:30:26;96558.00;;;18.45;29.70
11676;BME280;5894;42.768;23.404;2022-10-18T13:33:04;96544.97;;;18.44;28.97